createdAt,value
2023-05-13T00:02:26.379Z,11.38
2023-05-13T00:04:53.395Z,11.41
2023-05-13T00:07:20.408Z,11.33
2023-05-13T00:09:47.386Z,11.20
2023-05-13T00:12:14.456Z,11.12
2023-05-13T00:14:41.469Z,11.25
2023-05-13T00:17:08.469Z,11.24
2023-05-13T00:19:35.519Z,11.19
2023-05-13T00:22:02.595Z,11.13
2023-05-13T00:24:29.606Z,11.05
2023-05-13T00:26:56.632Z,11.11
2023-05-13T00:29:23.737Z,10.98
2023-05-13T00:31:51.761Z,10.97
2023-05-13T00:34:19.357Z,10.86
2023-05-13T00:36:46.414Z,10.89
2023-05-13T00:39:13.600Z,10.86
2023-05-13T00:41:40.841Z,10.70
2023-05-13T00:44:07.847Z,10.81
2023-05-13T00:46:34.979Z,10.55
2023-05-13T00:49:04.287Z,10.77
2023-05-13T00:51:32.627Z,10.63
2023-05-13T00:53:59.906Z,10.73
2023-05-13T00:56:27.147Z,10.73
2023-05-13T00:58:54.210Z,10.68
2023-05-13T01:01:34.838Z,10.35
2023-05-13T01:04:20.594Z,10.55
2023-05-13T01:07:06.252Z,10.52
2023-05-13T01:09:55.181Z,10.47
2023-05-13T01:12:30.919Z,10.25
2023-05-13T01:15:10.353Z,10.44
2023-05-13T01:17:41.752Z,10.25
2023-05-13T01:20:10.035Z,10.36
2023-05-13T01:22:38.503Z,10.29
2023-05-13T01:25:06.650Z,10.21
2023-05-13T01:27:34.138Z,10.17
2023-05-13T01:30:03.487Z,9.92
2023-05-13T01:32:34.197Z,10.17
2023-05-13T01:35:02.418Z,10.08
2023-05-13T01:37:30.830Z,9.78
2023-05-13T01:39:58.191Z,9.98
2023-05-13T01:42:25.519Z,9.82
2023-05-13T01:44:53.664Z,10.01
2023-05-13T01:47:21.570Z,9.98
2023-05-13T01:49:48.713Z,10.01
2023-05-13T01:52:15.827Z,10.01
2023-05-13T01:54:42.840Z,9.96
2023-05-13T01:57:13.460Z,9.75
2023-05-13T01:59:40.641Z,9.85
2023-05-13T02:02:07.786Z,9.74
2023-05-13T02:04:34.980Z,9.80
2023-05-13T02:07:02.035Z,9.78
2023-05-13T02:09:31.159Z,9.76
2023-05-13T02:11:58.721Z,9.62
2023-05-13T02:14:26.171Z,9.67
2023-05-13T02:16:53.436Z,9.62
2023-05-13T02:19:21.782Z,9.46
2023-05-13T02:21:48.940Z,9.52
2023-05-13T02:24:16.952Z,9.30
2023-05-13T02:26:44.993Z,9.40
2023-05-13T02:29:12.041Z,9.09
2023-05-13T02:31:39.361Z,9.26
2023-05-13T02:34:06.466Z,9.36
2023-05-13T02:36:33.495Z,9.24
2023-05-13T02:39:00.985Z,9.17
2023-05-13T02:41:28.715Z,9.26
2023-05-13T02:43:55.856Z,9.14
2023-05-13T02:46:23.385Z,9.32
2023-05-13T02:48:50.548Z,9.24
2023-05-13T02:51:17.636Z,9.29
2023-05-13T02:53:44.753Z,9.28
2023-05-13T02:56:12.027Z,9.26
2023-05-13T02:58:39.021Z,9.23
2023-05-13T03:01:06.249Z,9.17
2023-05-13T03:03:33.466Z,9.20
2023-05-13T03:06:00.793Z,9.04
2023-05-13T03:08:27.798Z,9.13
2023-05-13T03:10:54.914Z,9.17
2023-05-13T03:13:21.958Z,8.83
2023-05-13T03:15:48.982Z,9.15
2023-05-13T03:18:16.054Z,9.18
2023-05-13T03:20:43.318Z,9.14
2023-05-13T03:23:10.450Z,9.09
2023-05-13T03:25:37.738Z,9.04
2023-05-13T03:28:04.896Z,9.08
2023-05-13T03:30:36.625Z,9.16
2023-05-13T03:33:07.717Z,8.94
2023-05-13T03:35:34.896Z,9.08
2023-05-13T03:38:02.366Z,9.14
2023-05-13T03:40:30.526Z,8.99
2023-05-13T03:42:57.662Z,9.11
2023-05-13T03:45:24.988Z,9.10
2023-05-13T03:47:56.276Z,9.18
2023-05-13T03:50:24.949Z,9.18
2023-05-13T03:52:52.841Z,9.14
2023-05-13T03:55:21.425Z,9.20
2023-05-13T03:57:49.483Z,9.32
2023-05-13T04:00:18.945Z,9.34
2023-05-13T04:02:48.385Z,9.18
2023-05-13T04:05:15.774Z,9.36
2023-05-13T04:07:42.849Z,9.28
2023-05-13T04:10:12.337Z,9.24
2023-05-13T04:12:40.905Z,9.20
2023-05-13T04:15:08.456Z,9.34
2023-05-13T04:17:35.618Z,9.27
2023-05-13T04:20:02.944Z,9.35
2023-05-13T04:22:30.594Z,9.31
2023-05-13T04:24:57.642Z,9.41
2023-05-13T04:27:24.640Z,9.42
2023-05-13T04:29:56.253Z,9.40
2023-05-13T04:32:23.767Z,9.41
2023-05-13T04:34:55.026Z,9.34
2023-05-13T04:37:23.912Z,9.47
2023-05-13T04:39:53.739Z,9.47
2023-05-13T04:42:23.029Z,9.52
2023-05-13T04:44:50.044Z,9.62
2023-05-13T04:47:19.079Z,9.70
2023-05-13T04:49:46.132Z,9.61
2023-05-13T04:52:13.768Z,9.77
2023-05-13T04:54:40.918Z,9.76
2023-05-13T04:57:08.556Z,9.98
2023-05-13T04:59:36.344Z,10.08
2023-05-13T05:02:03.738Z,10.17
2023-05-13T05:04:30.912Z,10.14
2023-05-13T05:06:58.367Z,10.10
2023-05-13T05:09:25.426Z,10.37
2023-05-13T05:11:53.618Z,10.53
2023-05-13T05:14:23.474Z,10.68
2023-05-13T05:16:51.190Z,10.92
2023-05-13T05:19:23.871Z,10.98
2023-05-13T05:21:52.065Z,10.95
2023-05-13T05:24:19.480Z,11.23
2023-05-13T05:26:47.839Z,11.44
2023-05-13T05:29:15.184Z,11.39
2023-05-13T05:31:44.162Z,11.61
2023-05-13T05:34:11.930Z,11.48
2023-05-13T05:36:38.983Z,11.82
2023-05-13T05:39:06.569Z,11.91
2023-05-13T05:41:36.332Z,12.08
2023-05-13T05:44:03.481Z,12.10
2023-05-13T05:46:31.498Z,12.11
2023-05-13T05:48:59.295Z,11.94
2023-05-13T05:51:26.348Z,11.98
2023-05-13T05:53:53.378Z,11.67
2023-05-13T05:56:21.209Z,11.75
2023-05-13T05:58:48.384Z,11.68
2023-05-13T06:01:16.817Z,11.70
2023-05-13T06:03:45.711Z,11.95
2023-05-13T06:06:12.955Z,12.07
2023-05-13T06:08:40.244Z,12.17
2023-05-13T06:11:08.242Z,12.68
2023-05-13T06:13:35.451Z,12.85
2023-05-13T06:16:02.563Z,13.11
2023-05-13T06:18:30.094Z,13.14
2023-05-13T06:20:57.260Z,13.35
2023-05-13T06:23:24.275Z,13.38
2023-05-13T06:25:52.073Z,13.62
2023-05-13T06:28:19.170Z,13.74
2023-05-13T06:30:46.291Z,14.02
2023-05-13T06:33:13.538Z,14.27
2023-05-13T06:35:40.633Z,14.03
2023-05-13T06:38:10.066Z,14.10
2023-05-13T06:40:37.312Z,14.20
2023-05-13T06:43:05.235Z,14.52
2023-05-13T06:45:37.505Z,14.58
2023-05-13T06:48:04.919Z,14.51
2023-05-13T06:50:31.976Z,14.65
2023-05-13T06:52:59.137Z,14.78
2023-05-13T06:55:26.241Z,15.00
2023-05-13T06:57:53.257Z,15.09
2023-05-13T07:00:20.893Z,15.13
2023-05-13T07:02:48.135Z,15.01
2023-05-13T07:05:15.388Z,15.19
2023-05-13T07:07:43.296Z,15.23
2023-05-13T07:10:10.848Z,14.86
2023-05-13T07:12:37.954Z,15.43
2023-05-13T07:15:05.911Z,15.54
2023-05-13T07:17:33.002Z,15.73
2023-05-13T07:20:00.161Z,15.80
2023-05-13T07:22:27.839Z,15.81
2023-05-13T07:24:55.149Z,15.69
2023-05-13T07:27:22.253Z,15.50
2023-05-13T07:29:49.318Z,15.71
2023-05-13T07:32:16.396Z,15.85
2023-05-13T07:34:43.873Z,15.45
2023-05-13T07:37:11.130Z,15.89
2023-05-13T07:40:35.878Z,16.06
2023-05-13T07:43:02.953Z,16.07
2023-05-13T07:45:29.974Z,16.59
2023-05-13T07:47:56.997Z,16.46
2023-05-13T07:50:24.261Z,17.05
2023-05-13T07:52:51.873Z,17.16
2023-05-13T07:55:19.121Z,17.44
2023-05-13T07:58:11.472Z,17.69
2023-05-13T08:00:38.740Z,17.54
2023-05-13T08:03:06.017Z,17.70
2023-05-13T08:05:33.031Z,17.55
2023-05-13T08:08:00.312Z,17.57
2023-05-13T08:10:27.458Z,17.83
2023-05-13T08:12:57.566Z,17.44
2023-05-13T08:15:25.860Z,17.76
2023-05-13T08:17:54.050Z,17.56
2023-05-13T08:20:23.019Z,17.80
2023-05-13T08:22:50.352Z,17.90
2023-05-13T08:25:17.378Z,17.94
2023-05-13T08:27:44.369Z,18.03
2023-05-13T08:30:11.761Z,18.16
2023-05-13T08:32:38.759Z,18.40
2023-05-13T08:35:06.334Z,18.44
2023-05-13T08:37:33.376Z,18.57
2023-05-13T08:40:02.381Z,18.36
2023-05-13T08:42:33.284Z,18.43
2023-05-13T08:45:07.528Z,18.90
2023-05-13T08:47:58.330Z,19.03
2023-05-13T08:50:25.847Z,19.29
2023-05-13T08:52:53.967Z,19.52
2023-05-13T08:55:22.391Z,19.65
2023-05-13T08:57:50.441Z,19.62
2023-05-13T09:00:19.371Z,19.88
2023-05-13T09:02:48.828Z,19.83
2023-05-13T09:05:16.990Z,19.75
2023-05-13T09:07:44.257Z,20.18
2023-05-13T09:10:11.421Z,20.31
2023-05-13T09:12:51.814Z,20.40
2023-05-13T09:15:20.148Z,20.29
2023-05-13T09:17:50.668Z,20.29
2023-05-13T09:20:19.503Z,20.45
2023-05-13T09:22:48.935Z,20.74
2023-05-13T09:25:18.765Z,20.69
2023-05-13T09:27:48.015Z,20.69
2023-05-13T09:30:15.356Z,20.65
2023-05-13T09:32:43.020Z,20.59
2023-05-13T09:35:17.712Z,20.46
2023-05-13T09:37:46.462Z,20.10
2023-05-13T09:40:16.715Z,19.89
2023-05-13T09:42:45.624Z,19.80
2023-05-13T09:45:14.332Z,19.67
2023-05-13T09:47:41.969Z,19.41
2023-05-13T09:50:11.506Z,19.51
2023-05-13T09:52:38.863Z,19.47
2023-05-13T09:55:09.237Z,19.73
2023-05-13T09:57:37.871Z,19.66
2023-05-13T10:00:06.460Z,19.78
2023-05-13T10:02:40.168Z,19.50
2023-05-13T10:05:08.997Z,19.57
2023-05-13T10:07:37.893Z,19.72
2023-05-13T10:10:08.537Z,20.00
2023-05-13T10:12:38.054Z,20.11
2023-05-13T10:15:05.816Z,20.32
2023-05-13T10:17:33.361Z,20.15
2023-05-13T10:20:01.704Z,20.73
2023-05-13T10:22:34.659Z,20.84
2023-05-13T10:25:05.002Z,20.88
2023-05-13T10:27:33.529Z,20.99
2023-05-13T10:30:03.707Z,21.09
2023-05-13T10:32:31.601Z,21.10
2023-05-13T10:35:13.560Z,20.97
2023-05-13T10:38:07.496Z,21.33
2023-05-13T10:40:40.557Z,21.36
2023-05-13T10:43:26.014Z,21.28
2023-05-13T10:46:05.534Z,20.85
2023-05-13T10:48:49.404Z,20.81
2023-05-13T10:51:22.569Z,20.41
2023-05-13T10:53:55.600Z,19.99
2023-05-13T10:56:24.538Z,20.12
2023-05-13T10:59:03.370Z,20.44
2023-05-13T11:01:34.851Z,20.67
2023-05-13T11:04:05.635Z,20.63
2023-05-13T11:06:37.480Z,21.18
2023-05-13T11:09:11.760Z,21.49
2023-05-13T11:11:39.337Z,21.02
2023-05-13T11:14:26.025Z,20.66
2023-05-13T11:17:00.250Z,20.58
2023-05-13T11:19:38.298Z,20.12
2023-05-13T11:22:13.662Z,19.90
2023-05-13T11:24:41.594Z,19.95
2023-05-13T11:27:19.828Z,19.81
2023-05-13T11:29:54.985Z,19.99
2023-05-13T11:32:53.309Z,19.93
2023-05-13T11:35:28.901Z,19.65
2023-05-13T11:37:59.991Z,19.24
2023-05-13T11:40:32.835Z,17.95
2023-05-13T11:43:01.198Z,17.73
2023-05-13T11:45:29.775Z,17.25
2023-05-13T11:47:57.808Z,17.00
2023-05-13T11:50:35.377Z,16.83
2023-05-13T11:53:02.676Z,16.90
2023-05-13T11:55:32.006Z,17.01
2023-05-13T11:57:59.627Z,17.60
2023-05-13T12:00:27.419Z,17.40
2023-05-13T12:02:55.042Z,17.41
2023-05-13T12:05:22.916Z,17.43
2023-05-13T12:07:50.631Z,17.28
2023-05-13T12:10:17.813Z,16.90
2023-05-13T12:12:46.114Z,16.72
2023-05-13T12:15:18.653Z,16.48
2023-05-13T12:17:46.708Z,15.83
2023-05-13T12:20:18.168Z,15.92
2023-05-13T12:22:45.125Z,15.26
2023-05-13T12:25:40.374Z,14.86
2023-05-13T12:28:20.625Z,14.79
2023-05-13T12:30:53.890Z,14.57
2023-05-13T12:33:23.233Z,14.97
2023-05-13T12:35:52.868Z,15.44
2023-05-13T12:38:22.122Z,15.72
2023-05-13T12:40:50.221Z,15.84
2023-05-13T12:43:19.454Z,16.01
2023-05-13T12:45:48.175Z,16.47
2023-05-13T12:48:15.863Z,16.63
2023-05-13T12:50:42.932Z,16.92
2023-05-13T12:53:10.000Z,17.13
2023-05-13T12:55:39.953Z,17.15
2023-05-13T12:58:10.788Z,17.24
2023-05-13T13:00:38.096Z,17.15
2023-05-13T13:03:05.876Z,17.68
2023-05-13T13:05:33.382Z,17.59
2023-05-13T13:08:05.210Z,17.96
2023-05-13T13:10:32.488Z,17.67
2023-05-13T13:12:59.505Z,17.76
2023-05-13T13:15:26.697Z,18.37
2023-05-13T13:17:53.810Z,18.63
2023-05-13T13:20:20.934Z,19.32
2023-05-13T13:22:48.034Z,19.19
2023-05-13T13:25:15.103Z,19.74
2023-05-13T13:27:42.079Z,19.83
2023-05-13T13:30:09.446Z,19.89
2023-05-13T13:32:36.528Z,20.12
2023-05-13T13:35:05.460Z,20.07
2023-05-13T13:37:32.538Z,20.03
2023-05-13T13:39:59.634Z,20.45
2023-05-13T13:42:36.817Z,20.49
2023-05-13T13:45:11.426Z,20.02
2023-05-13T13:47:38.596Z,19.23
2023-05-13T13:50:06.408Z,19.34
2023-05-13T13:52:33.523Z,19.39
2023-05-13T13:55:00.692Z,19.39
2023-05-13T13:57:27.851Z,19.02
2023-05-13T13:59:54.865Z,19.15
2023-05-13T14:02:21.994Z,19.20
2023-05-13T14:04:49.023Z,19.60
2023-05-13T14:07:16.198Z,19.93
2023-05-13T14:09:43.210Z,20.16
2023-05-13T14:12:10.263Z,20.46
2023-05-13T14:14:37.239Z,20.30
2023-05-13T14:17:04.440Z,20.07
2023-05-13T14:19:31.442Z,20.22
2023-05-13T14:21:58.495Z,20.31
2023-05-13T14:24:27.021Z,20.12
2023-05-13T14:26:54.190Z,19.89
2023-05-13T14:29:21.252Z,20.31
2023-05-13T14:31:48.613Z,20.18
2023-05-13T14:34:16.471Z,20.16
2023-05-13T14:36:43.554Z,20.74
2023-05-13T14:39:10.773Z,21.28
2023-05-13T14:41:37.952Z,22.02
2023-05-13T14:44:04.939Z,22.05
2023-05-13T14:46:35.391Z,21.49
2023-05-13T14:49:02.497Z,21.51
2023-05-13T14:51:29.694Z,20.84
2023-05-13T14:53:56.844Z,21.10
2023-05-13T14:56:25.041Z,20.99
2023-05-13T14:58:53.160Z,20.69
2023-05-13T15:01:20.262Z,20.88
2023-05-13T15:03:47.342Z,21.55
2023-05-13T15:06:14.541Z,21.98
2023-05-13T15:08:41.544Z,21.35
2023-05-13T15:11:08.590Z,21.41
2023-05-13T15:13:36.861Z,22.44
2023-05-13T15:16:04.364Z,21.81
2023-05-13T15:18:31.642Z,21.45
2023-05-13T15:20:58.724Z,22.43
2023-05-13T15:23:25.797Z,23.56
2023-05-13T15:25:52.849Z,24.24
2023-05-13T15:28:19.848Z,25.17
2023-05-13T15:30:46.862Z,24.63
2023-05-13T15:33:13.910Z,24.82
2023-05-13T15:35:42.449Z,25.64
2023-05-13T15:38:10.681Z,25.87
2023-05-13T15:40:38.477Z,25.25
2023-05-13T15:43:05.480Z,25.63
2023-05-13T15:45:32.508Z,25.83
2023-05-13T15:47:59.547Z,24.48
2023-05-13T15:50:27.372Z,24.73
2023-05-13T15:52:54.653Z,24.29
2023-05-13T15:55:22.134Z,24.31
2023-05-13T15:57:50.463Z,25.48
2023-05-13T16:00:18.528Z,25.81
2023-05-13T16:02:45.600Z,26.63
2023-05-13T16:05:15.200Z,26.84
2023-05-13T16:07:42.502Z,27.12
2023-05-13T16:10:09.924Z,26.77
2023-05-13T16:12:37.482Z,26.16
2023-05-13T16:15:04.802Z,23.90
2023-05-13T16:17:31.898Z,22.76
2023-05-13T16:19:59.699Z,22.17
2023-05-13T16:22:28.934Z,22.05
2023-05-13T16:24:59.534Z,21.77
2023-05-13T16:27:28.168Z,23.14
2023-05-13T16:29:56.235Z,24.95
2023-05-13T16:32:23.737Z,25.04
2023-05-13T16:34:52.045Z,24.72
2023-05-13T16:37:19.130Z,24.82
2023-05-13T16:39:46.719Z,24.64
2023-05-13T16:42:13.819Z,24.00
2023-05-13T16:44:40.989Z,21.82
2023-05-13T16:47:11.018Z,20.82
2023-05-13T16:49:38.265Z,20.69
2023-05-13T16:52:06.165Z,20.06
2023-05-13T16:54:34.133Z,19.46
2023-05-13T16:57:01.260Z,19.33
2023-05-13T16:59:28.589Z,18.95
2023-05-13T17:01:55.758Z,18.97
2023-05-13T17:04:22.898Z,18.74
2023-05-13T17:06:49.956Z,18.53
2023-05-13T17:09:17.124Z,18.51
2023-05-13T17:11:44.218Z,18.51
2023-05-13T17:14:11.336Z,18.54
2023-05-13T17:16:38.654Z,18.36
2023-05-13T17:19:05.833Z,18.31
2023-05-13T17:21:32.873Z,18.51
2023-05-13T17:24:00.168Z,19.84
2023-05-13T17:26:27.745Z,21.27
2023-05-13T17:28:54.843Z,22.59
2023-05-13T17:31:22.523Z,21.57
2023-05-13T17:33:49.725Z,20.75
2023-05-13T17:36:16.775Z,19.66
2023-05-13T17:38:44.120Z,19.27
2023-05-13T17:41:11.276Z,19.43
2023-05-13T17:43:38.341Z,19.73
2023-05-13T17:46:05.463Z,19.27
2023-05-13T17:48:33.126Z,18.91
2023-05-13T17:51:00.377Z,18.93
2023-05-13T17:53:27.520Z,18.64
2023-05-13T17:55:54.609Z,18.85
2023-05-13T17:58:21.737Z,18.87
2023-05-13T18:00:48.965Z,18.81
2023-05-13T18:03:16.300Z,18.75
2023-05-13T18:05:43.425Z,18.55
2023-05-13T18:08:10.479Z,18.72
2023-05-13T18:10:37.500Z,18.73
2023-05-13T18:13:04.568Z,18.72
2023-05-13T18:15:31.978Z,18.35
2023-05-13T18:17:59.131Z,18.23
2023-05-13T18:20:26.441Z,18.52
2023-05-13T18:22:53.490Z,18.00
2023-05-13T18:25:20.576Z,18.10
2023-05-13T18:27:50.013Z,18.05
2023-05-13T18:30:18.218Z,17.80
2023-05-13T18:32:45.653Z,17.57
2023-05-13T18:35:12.852Z,17.37
2023-05-13T18:37:39.932Z,17.29
2023-05-13T18:40:07.643Z,17.16
2023-05-13T18:42:34.642Z,17.20
2023-05-13T18:45:01.778Z,17.10
2023-05-13T18:47:28.853Z,16.98
2023-05-13T18:49:56.014Z,16.48
2023-05-13T18:52:23.074Z,16.63
2023-05-13T18:54:50.083Z,16.60
2023-05-13T18:57:17.814Z,16.31
2023-05-13T18:59:44.850Z,16.19
2023-05-13T19:02:11.933Z,15.94
2023-05-13T19:04:39.021Z,15.76
2023-05-13T19:07:06.108Z,15.63
2023-05-13T19:09:35.612Z,15.54
2023-05-13T19:12:02.759Z,15.33
2023-05-13T19:14:29.803Z,15.29
2023-05-13T19:16:57.013Z,15.31
2023-05-13T19:19:24.400Z,15.36
2023-05-13T19:21:51.418Z,15.26
2023-05-13T19:24:18.446Z,15.24
2023-05-13T19:26:45.564Z,15.07
2023-05-13T19:29:12.783Z,14.95
2023-05-13T19:31:40.270Z,14.87
2023-05-13T19:34:07.583Z,14.65
2023-05-13T19:36:34.670Z,14.65
2023-05-13T19:39:01.870Z,14.58
2023-05-13T19:41:28.976Z,14.56
2023-05-13T19:43:56.504Z,14.42
2023-05-13T19:46:23.607Z,14.28
2023-05-13T19:48:50.666Z,14.18
2023-05-13T19:51:18.100Z,14.14
2023-05-13T19:53:45.180Z,14.10
2023-05-13T19:56:12.219Z,14.02
2023-05-13T19:58:39.209Z,13.96
2023-05-13T20:01:06.254Z,13.61
2023-05-13T20:03:33.377Z,13.78
2023-05-13T20:06:01.591Z,13.74
2023-05-13T20:08:31.415Z,13.50
2023-05-13T20:10:58.738Z,13.43
2023-05-13T20:13:26.046Z,13.46
2023-05-13T20:15:53.151Z,13.32
2023-05-13T20:18:20.211Z,13.20
2023-05-13T20:20:47.924Z,13.08
2023-05-13T20:23:14.975Z,13.02
2023-05-13T20:25:42.099Z,12.89
2023-05-13T20:28:09.096Z,12.58
2023-05-13T20:30:36.313Z,12.66
2023-05-13T20:33:03.901Z,12.56
2023-05-13T20:35:30.926Z,12.45
2023-05-13T20:37:58.490Z,12.49
2023-05-13T20:40:25.602Z,12.49
2023-05-13T20:42:52.713Z,12.46
2023-05-13T20:45:19.791Z,12.42
2023-05-13T20:47:46.827Z,12.31
2023-05-13T20:50:14.006Z,12.38
2023-05-13T20:52:41.407Z,12.32
2023-05-13T20:55:09.009Z,12.35
2023-05-13T20:57:36.058Z,12.08
2023-05-13T21:00:03.388Z,12.19
2023-05-13T21:02:30.815Z,12.15
2023-05-13T21:04:57.948Z,12.15
2023-05-13T21:07:25.113Z,11.95
2023-05-13T21:09:52.253Z,11.85
2023-05-13T21:12:19.258Z,11.85
2023-05-13T21:14:46.286Z,12.03
2023-05-13T21:17:13.263Z,11.96
2023-05-13T21:19:40.488Z,11.85
2023-05-13T21:22:07.499Z,11.80
2023-05-13T21:24:34.525Z,11.78
2023-05-13T21:27:01.518Z,11.66
2023-05-13T21:29:30.086Z,11.42
2023-05-13T21:31:57.242Z,11.56
2023-05-13T21:34:24.623Z,11.43
2023-05-13T21:36:52.161Z,11.47
2023-05-13T21:39:19.168Z,11.33
2023-05-13T21:41:47.350Z,11.14
2023-05-13T21:44:14.381Z,11.26
2023-05-13T21:46:41.426Z,11.07
2023-05-13T21:49:08.555Z,10.93
2023-05-13T21:51:35.706Z,10.97
2023-05-13T21:54:02.770Z,10.94
2023-05-13T21:56:29.751Z,10.98
2023-05-13T21:58:56.815Z,10.94
2023-05-13T22:01:23.999Z,10.98
2023-05-13T22:03:51.069Z,10.79
2023-05-13T22:06:18.274Z,11.04
2023-05-13T22:08:45.640Z,10.91
2023-05-13T22:11:12.682Z,10.79
2023-05-13T22:13:39.737Z,10.79
2023-05-13T22:16:06.935Z,10.70
2023-05-13T22:18:34.293Z,10.66
2023-05-13T22:21:01.446Z,10.63
2023-05-13T22:23:28.452Z,10.53
2023-05-13T22:25:55.547Z,10.40
2023-05-13T22:28:22.708Z,10.51
2023-05-13T22:30:52.627Z,10.38
2023-05-13T22:33:19.701Z,10.38
2023-05-13T22:35:47.151Z,10.38
2023-05-13T22:38:14.199Z,10.32
2023-05-13T22:40:41.341Z,10.26
2023-05-13T22:43:08.363Z,10.23
2023-05-13T22:45:36.876Z,9.88
2023-05-13T22:48:04.016Z,10.13
2023-05-13T22:50:31.097Z,10.08
2023-05-13T22:52:58.100Z,10.08
2023-05-13T22:55:25.248Z,9.95
2023-05-13T22:57:52.281Z,9.95
2023-05-13T23:00:19.927Z,9.91
2023-05-13T23:02:46.955Z,9.97
2023-05-13T23:05:14.051Z,9.80
2023-05-13T23:07:41.135Z,9.91
2023-05-13T23:10:08.544Z,9.87
2023-05-13T23:12:35.520Z,9.68
2023-05-13T23:15:02.837Z,9.75
2023-05-13T23:17:30.019Z,9.71
2023-05-13T23:19:57.163Z,9.55
2023-05-13T23:22:24.127Z,9.56
2023-05-13T23:24:51.139Z,9.44
2023-05-13T23:27:18.116Z,9.52
2023-05-13T23:29:45.186Z,9.42
2023-05-13T23:32:12.316Z,9.20
2023-05-13T23:34:39.360Z,9.12
2023-05-13T23:37:06.338Z,9.02
2023-05-13T23:39:33.344Z,9.35
2023-05-13T23:42:00.418Z,9.30
2023-05-13T23:44:27.455Z,9.26
2023-05-13T23:46:54.504Z,9.21
2023-05-13T23:49:21.511Z,9.09
2023-05-13T23:51:48.871Z,9.13
2023-05-13T23:54:16.540Z,8.79
2023-05-13T23:56:43.616Z,9.06
2023-05-13T23:59:10.774Z,9.03
